Time;durP1;ratioP1;P1;durP2;ratioP2;P2;SDS_P1;SDS_P2;PMS_P1;PMS_P2;Temp;Humidity;BMP_temperature;BMP_pressure;BME280_temperature;BME280_humidity;BME280_pressure;Samples;Min_cycle;Max_cycle;Signal;HPM_P1;HPM_P2
2022/07/05 00:00:38;;;;;;;7.93;2.63;;;;;;;;;;5046379;28;20191;-41
2022/07/05 00:03:04;;;;;;;6.73;2.50;;;;;;;;;;5047170;28;21012;-41
2022/07/05 00:05:31;;;;;;;6.53;2.50;;;;;;;;;;5041251;28;20308;-39
2022/07/05 00:07:57;;;;;;;6.73;2.60;;;;;;;;;;5048998;28;20693;-40
2022/07/05 00:10:23;;;;;;;7.50;2.70;;;;;;;;;;5045920;28;21001;-40
2022/07/05 00:12:49;;;;;;;6.80;2.70;;;;;;;;;;5051679;28;21023;-39
2022/07/05 00:15:15;;;;;;;6.93;2.97;;;;;;;;;;5049574;28;20170;-40
2022/07/05 00:17:41;;;;;;;8.63;3.30;;;;;;;;;;5051305;28;20194;-40
2022/07/05 00:20:07;;;;;;;9.43;4.00;;;;;;;;;;5053119;28;20268;-41
2022/07/05 00:22:33;;;;;;;11.10;4.20;;;;;;;;;;5048829;28;21096;-39
2022/07/05 00:24:59;;;;;;;8.33;4.37;;;;;;;;;;5047103;28;20345;-40
2022/07/05 00:27:25;;;;;;;10.70;4.63;;;;;;;;;;5051875;28;20198;-40
2022/07/05 00:29:52;;;;;;;7.20;4.87;;;;;;;;;;5052353;28;21492;-39
2022/07/05 00:32:18;;;;;;;6.63;4.70;;;;;;;;;;5051567;28;20182;-40
2022/07/05 00:34:44;;;;;;;7.17;4.67;;;;;;;;;;5046484;28;20190;-41
2022/07/05 00:37:10;;;;;;;9.00;5.00;;;;;;;;;;5047547;28;20881;-41
2022/07/05 00:39:36;;;;;;;9.27;5.37;;;;;;;;;;5051356;28;20195;-41
2022/07/05 00:42:03;;;;;;;8.93;4.90;;;;;;;;;;5044760;28;20176;-40
2022/07/05 00:44:37;;;;;;;9.70;5.00;;;;;;;;;;5048611;28;20174;-41
2022/07/05 00:47:06;;;;;;;8.30;4.50;;;;;;;;;;5047504;28;20198;-41
2022/07/05 00:49:33;;;;;;;6.20;4.07;;;;;;;;;;5052126;28;20280;-41
2022/07/05 00:51:59;;;;;;;11.03;5.10;;;;;;;;;;5047704;28;20499;-40
2022/07/05 00:54:26;;;;;;;8.37;4.87;;;;;;;;;;5047163;28;20179;-41
2022/07/05 00:56:53;;;;;;;7.07;4.50;;;;;;;;;;5050445;28;20171;-41
2022/07/05 00:59:19;;;;;;;9.23;4.60;;;;;;;;;;5048863;28;20483;-41
2022/07/05 01:01:45;;;;;;;8.97;5.47;;;;;;;;;;5045839;28;20174;-40
2022/07/05 01:04:12;;;;;;;9.20;4.93;;;;;;;;;;5049485;28;20800;-40
2022/07/05 01:06:39;;;;;;;7.33;4.70;;;;;;;;;;5046304;28;20614;-40
2022/07/05 01:09:05;;;;;;;7.87;4.40;;;;;;;;;;5046204;28;20221;-40
2022/07/05 01:11:31;;;;;;;9.10;5.13;;;;;;;;;;5047897;28;20213;-40
2022/07/05 01:14:01;;;;;;;9.07;4.83;;;;;;;;;;5047108;28;20983;-40
2022/07/05 01:16:27;;;;;;;7.87;5.30;;;;;;;;;;5048144;28;21028;-40
2022/07/05 01:18:53;;;;;;;10.57;5.10;;;;;;;;;;5046088;28;20199;-39
2022/07/05 01:21:22;;;;;;;10.40;5.27;;;;;;;;;;5051645;28;20177;-41
2022/07/05 01:23:48;;;;;;;8.70;5.27;;;;;;;;;;5043807;28;20737;-41
2022/07/05 01:26:15;;;;;;;12.17;5.37;;;;;;;;;;5047738;28;20175;-40
2022/07/05 01:28:41;;;;;;;10.50;6.27;;;;;;;;;;5046792;28;20820;-41
2022/07/05 01:31:07;;;;;;;10.93;6.10;;;;;;;;;;5050321;28;21299;-40
2022/07/05 01:33:33;;;;;;;10.07;6.77;;;;;;;;;;5047051;28;20183;-39
2022/07/05 01:35:59;;;;;;;9.43;6.23;;;;;;;;;;5044838;28;20171;-42
2022/07/05 01:38:25;;;;;;;8.67;5.80;;;;;;;;;;5043312;28;20186;-42
2022/07/05 01:40:52;;;;;;;11.93;6.13;;;;;;;;;;5050989;28;20302;-42
2022/07/05 01:43:19;;;;;;;10.03;6.00;;;;;;;;;;5047612;28;20171;-43
2022/07/05 01:45:48;;;;;;;7.50;5.83;;;;;;;;;;5047192;28;21193;-43
2022/07/05 01:48:16;;;;;;;10.67;6.20;;;;;;;;;;5044164;28;20356;-43
2022/07/05 01:50:48;;;;;;;13.90;6.83;;;;;;;;;;5047619;28;20175;-42
2022/07/05 01:53:25;;;;;;;12.87;7.07;;;;;;;;;;5048650;28;20248;-43
2022/07/05 01:55:51;;;;;;;11.03;7.17;;;;;;;;;;5050540;28;21051;-42
2022/07/05 01:58:17;;;;;;;12.77;6.83;;;;;;;;;;5045222;28;20186;-43
2022/07/05 02:00:48;;;;;;;11.47;6.93;;;;;;;;;;5049221;28;20214;-43
2022/07/05 02:03:15;;;;;;;11.70;7.50;;;;;;;;;;5048229;28;20176;-43
2022/07/05 02:05:41;;;;;;;12.00;6.40;;;;;;;;;;5045583;28;20178;-43
2022/07/05 02:08:08;;;;;;;11.63;6.50;;;;;;;;;;5042793;28;21443;-43
2022/07/05 02:10:35;;;;;;;8.37;6.20;;;;;;;;;;5041751;28;20171;-42
2022/07/05 02:13:01;;;;;;;8.17;5.47;;;;;;;;;;5045448;28;20182;-43
2022/07/05 02:15:30;;;;;;;10.97;5.90;;;;;;;;;;5046159;28;20181;-42
2022/07/05 02:17:56;;;;;;;8.80;6.53;;;;;;;;;;5045715;28;20189;-43
2022/07/05 02:20:22;;;;;;;11.93;5.97;;;;;;;;;;5048034;28;20197;-43
2022/07/05 02:22:48;;;;;;;10.77;5.20;;;;;;;;;;5046416;28;21046;-43
2022/07/05 02:25:14;;;;;;;9.53;5.40;;;;;;;;;;5049139;28;20264;-42
2022/07/05 02:27:40;;;;;;;8.93;5.40;;;;;;;;;;5050502;28;20246;-43
2022/07/05 02:30:07;;;;;;;11.17;5.00;;;;;;;;;;5046110;28;20187;-41
2022/07/05 02:32:33;;;;;;;11.63;4.90;;;;;;;;;;5047062;28;20312;-41
2022/07/05 02:34:59;;;;;;;6.97;4.43;;;;;;;;;;5042918;28;21186;-43
2022/07/05 02:37:25;;;;;;;9.27;4.50;;;;;;;;;;5047632;28;20183;-43
2022/07/05 02:39:51;;;;;;;8.33;4.80;;;;;;;;;;5040202;28;20194;-43
2022/07/05 02:42:17;;;;;;;13.17;4.97;;;;;;;;;;5046322;28;20225;-42
2022/07/05 02:44:43;;;;;;;8.00;4.70;;;;;;;;;;5048218;28;20226;-43
2022/07/05 02:47:09;;;;;;;9.10;5.00;;;;;;;;;;5048077;28;20299;-42
2022/07/05 02:49:35;;;;;;;13.03;5.87;;;;;;;;;;5044598;28;20183;-41
2022/07/05 02:52:01;;;;;;;8.53;5.43;;;;;;;;;;5047911;28;20170;-43
2022/07/05 02:54:27;;;;;;;9.70;5.47;;;;;;;;;;5049389;28;20183;-43
2022/07/05 02:56:53;;;;;;;11.33;6.13;;;;;;;;;;5046296;28;21097;-42
2022/07/05 02:59:19;;;;;;;10.20;5.93;;;;;;;;;;5042275;28;20235;-42
2022/07/05 03:01:45;;;;;;;9.13;5.93;;;;;;;;;;5045060;28;20190;-42
2022/07/05 03:04:11;;;;;;;14.47;6.50;;;;;;;;;;5047396;28;20189;-43
2022/07/05 03:06:38;;;;;;;11.90;5.87;;;;;;;;;;5047175;28;20178;-43
2022/07/05 03:09:04;;;;;;;13.73;7.03;;;;;;;;;;5041611;28;20183;-43
2022/07/05 03:11:30;;;;;;;12.87;6.20;;;;;;;;;;5047215;28;20170;-42
2022/07/05 03:13:56;;;;;;;13.50;7.20;;;;;;;;;;5045256;28;20240;-43
2022/07/05 03:16:24;;;;;;;10.57;7.17;;;;;;;;;;5044764;28;20969;-41
2022/07/05 03:18:50;;;;;;;11.40;7.00;;;;;;;;;;5046128;28;20195;-42
2022/07/05 03:21:16;;;;;;;16.30;7.70;;;;;;;;;;5046333;28;20174;-43
2022/07/05 03:23:42;;;;;;;14.70;7.53;;;;;;;;;;5046286;28;20182;-43
2022/07/05 03:26:08;;;;;;;11.70;7.30;;;;;;;;;;5047744;28;20174;-43
2022/07/05 03:28:34;;;;;;;12.37;8.13;;;;;;;;;;5049681;28;20173;-42
2022/07/05 03:31:01;;;;;;;12.77;8.63;;;;;;;;;;5053280;28;20175;-43
2022/07/05 03:33:27;;;;;;;14.50;8.23;;;;;;;;;;5052103;28;20245;-43
2022/07/05 03:35:53;;;;;;;13.17;8.03;;;;;;;;;;5049737;28;20171;-42
2022/07/05 03:38:19;;;;;;;12.20;7.53;;;;;;;;;;5046498;28;20178;-43
2022/07/05 03:40:45;;;;;;;11.03;6.97;;;;;;;;;;5048937;28;20202;-43
2022/07/05 03:43:11;;;;;;;9.97;6.97;;;;;;;;;;5054371;28;20167;-42
2022/07/05 03:45:37;;;;;;;8.57;6.70;;;;;;;;;;5054475;27;20171;-43
2022/07/05 03:48:03;;;;;;;10.73;6.50;;;;;;;;;;5053930;28;20174;-43
2022/07/05 03:50:29;;;;;;;7.47;6.00;;;;;;;;;;5052973;28;20256;-41
2022/07/05 03:52:55;;;;;;;9.50;6.43;;;;;;;;;;5053310;28;20174;-41
2022/07/05 03:55:21;;;;;;;9.87;5.63;;;;;;;;;;5051105;28;20178;-43
2022/07/05 03:57:48;;;;;;;8.60;5.53;;;;;;;;;;5055549;28;20256;-42
2022/07/05 04:00:14;;;;;;;9.67;5.10;;;;;;;;;;5054040;28;20230;-42
2022/07/05 04:02:41;;;;;;;8.60;5.40;;;;;;;;;;5053456;28;20989;-43
2022/07/05 04:05:07;;;;;;;10.33;5.97;;;;;;;;;;5055718;28;21104;-43
2022/07/05 04:07:33;;;;;;;8.77;4.93;;;;;;;;;;5049602;28;20163;-42
2022/07/05 04:09:59;;;;;;;9.13;4.97;;;;;;;;;;5053759;28;20902;-43
2022/07/05 04:12:26;;;;;;;8.97;5.37;;;;;;;;;;5051362;28;20179;-43
2022/07/05 04:14:52;;;;;;;9.47;5.73;;;;;;;;;;5054799;28;20182;-42
2022/07/05 04:17:18;;;;;;;8.93;5.53;;;;;;;;;;5048459;28;20941;-43
2022/07/05 04:19:44;;;;;;;8.83;5.43;;;;;;;;;;5052346;28;20226;-43
2022/07/05 04:22:11;;;;;;;10.63;4.73;;;;;;;;;;5055080;28;20210;-42
2022/07/05 04:27:22;;;;;;;7.70;4.83;;;;;;;;;;5050039;28;20252;-43
2022/07/05 04:29:48;;;;;;;9.73;4.77;;;;;;;;;;5054515;28;20213;-43
2022/07/05 04:32:14;;;;;;;7.53;4.77;;;;;;;;;;5050222;28;20300;-39
2022/07/05 04:34:40;;;;;;;6.77;4.50;;;;;;;;;;5053440;28;20182;-39
2022/07/05 04:37:06;;;;;;;11.30;4.80;;;;;;;;;;5049122;28;20232;-43
2022/07/05 04:39:32;;;;;;;9.27;4.53;;;;;;;;;;5050053;28;20204;-42
2022/07/05 04:41:58;;;;;;;8.10;4.23;;;;;;;;;;5050353;28;21110;-42
2022/07/05 04:44:25;;;;;;;10.93;4.33;;;;;;;;;;5050152;28;20274;-42
2022/07/05 04:46:51;;;;;;;10.07;4.30;;;;;;;;;;5048013;28;20244;-42
2022/07/05 04:49:17;;;;;;;8.37;3.17;;;;;;;;;;5051053;28;20175;-43
2022/07/05 04:51:43;;;;;;;7.43;3.27;;;;;;;;;;5047730;28;20228;-42
2022/07/05 04:54:09;;;;;;;8.13;3.60;;;;;;;;;;5049863;28;20999;-42
2022/07/05 04:56:35;;;;;;;6.30;3.47;;;;;;;;;;5051295;28;20252;-42
2022/07/05 04:59:01;;;;;;;7.00;3.10;;;;;;;;;;5048940;28;20167;-42
2022/07/05 05:01:27;;;;;;;7.60;3.00;;;;;;;;;;5050971;28;20171;-43
2022/07/05 05:03:53;;;;;;;7.23;3.77;;;;;;;;;;5047375;28;20591;-42
2022/07/05 05:06:19;;;;;;;10.00;2.50;;;;;;;;;;5051163;28;20176;-42
2022/07/05 05:08:45;;;;;;;6.00;2.70;;;;;;;;;;5051828;28;20174;-42
2022/07/05 05:11:11;;;;;;;9.90;2.80;;;;;;;;;;5046034;28;20169;-42
2022/07/05 05:13:37;;;;;;;6.83;2.60;;;;;;;;;;5047875;28;20200;-42
2022/07/05 05:16:03;;;;;;;9.07;2.60;;;;;;;;;;5052638;28;20179;-42
2022/07/05 05:18:30;;;;;;;7.17;2.40;;;;;;;;;;5042642;28;20187;-42
2022/07/05 05:20:56;;;;;;;6.30;2.50;;;;;;;;;;5044455;28;20197;-43
2022/07/05 05:23:22;;;;;;;8.47;2.50;;;;;;;;;;5047023;28;20174;-42
2022/07/05 05:25:48;;;;;;;7.17;2.30;;;;;;;;;;5051169;28;20174;-43
2022/07/05 05:28:15;;;;;;;6.77;2.47;;;;;;;;;;5048902;28;20179;-42
2022/07/05 05:30:41;;;;;;;9.00;2.90;;;;;;;;;;5048635;28;20236;-42
2022/07/05 05:33:07;;;;;;;10.47;2.67;;;;;;;;;;5041425;28;20175;-42
2022/07/05 05:35:33;;;;;;;6.43;2.80;;;;;;;;;;5045174;28;20198;-41
2022/07/05 05:37:59;;;;;;;5.30;2.27;;;;;;;;;;5050191;28;20174;-41
2022/07/05 05:40:26;;;;;;;10.90;2.60;;;;;;;;;;5050254;28;20279;-42
2022/07/05 05:42:52;;;;;;;9.27;2.47;;;;;;;;;;5055374;28;21126;-42
2022/07/05 05:45:19;;;;;;;11.13;2.93;;;;;;;;;;5056717;28;20167;-42
2022/07/05 05:47:48;;;;;;;5.13;2.53;;;;;;;;;;5051181;28;20183;-42
2022/07/05 05:50:14;;;;;;;6.87;2.37;;;;;;;;;;5051918;28;20374;-41
2022/07/05 05:52:40;;;;;;;9.67;2.60;;;;;;;;;;5057632;28;20196;-42
2022/07/05 05:55:07;;;;;;;6.47;2.30;;;;;;;;;;5052839;28;20182;-43
2022/07/05 05:57:35;;;;;;;8.33;2.60;;;;;;;;;;5050134;28;20186;-41
2022/07/05 06:00:01;;;;;;;13.47;3.00;;;;;;;;;;5053873;28;20191;-42
2022/07/05 06:02:27;;;;;;;6.30;2.40;;;;;;;;;;5049122;28;20938;-41
2022/07/05 06:04:53;;;;;;;8.77;2.53;;;;;;;;;;5048848;28;20926;-42
2022/07/05 06:07:20;;;;;;;10.00;2.60;;;;;;;;;;5051734;28;20172;-42
2022/07/05 06:09:46;;;;;;;8.53;2.43;;;;;;;;;;5055017;28;20182;-42
2022/07/05 06:12:12;;;;;;;10.07;2.93;;;;;;;;;;5054783;28;20525;-43
2022/07/05 06:14:38;;;;;;;8.03;2.77;;;;;;;;;;5049889;28;20171;-43
2022/07/05 06:17:04;;;;;;;9.27;3.03;;;;;;;;;;5047596;28;20708;-42
2022/07/05 06:19:30;;;;;;;7.70;3.10;;;;;;;;;;5049519;28;20194;-43
2022/07/05 06:21:56;;;;;;;10.17;3.17;;;;;;;;;;5052900;28;20698;-42
2022/07/05 06:24:22;;;;;;;10.47;3.13;;;;;;;;;;5052084;28;20898;-41
2022/07/05 06:26:48;;;;;;;6.80;2.90;;;;;;;;;;5051148;28;20320;-42
2022/07/05 06:29:14;;;;;;;11.73;3.33;;;;;;;;;;5048679;28;20178;-42
2022/07/05 06:31:40;;;;;;;5.90;3.20;;;;;;;;;;5044643;28;20392;-42
2022/07/05 06:34:07;;;;;;;6.37;3.13;;;;;;;;;;5045394;28;20171;-42
2022/07/05 06:36:33;;;;;;;7.00;2.90;;;;;;;;;;5045726;28;20908;-42
2022/07/05 06:38:59;;;;;;;7.73;3.10;;;;;;;;;;5050608;28;20181;-42
2022/07/05 06:41:25;;;;;;;9.03;3.30;;;;;;;;;;5033130;28;20438;-41
2022/07/05 06:43:51;;;;;;;6.43;3.13;;;;;;;;;;5045839;28;20162;-41
2022/07/05 06:46:17;;;;;;;7.23;3.30;;;;;;;;;;5047430;28;20193;-41
2022/07/05 06:48:43;;;;;;;10.00;3.40;;;;;;;;;;5052324;28;21108;-40
2022/07/05 06:51:10;;;;;;;11.03;3.70;;;;;;;;;;5046200;28;20282;-43
2022/07/05 06:53:36;;;;;;;7.03;3.50;;;;;;;;;;5053023;28;20236;-43
2022/07/05 06:56:02;;;;;;;8.60;3.87;;;;;;;;;;5053020;28;20170;-42
2022/07/05 06:58:28;;;;;;;9.23;3.87;;;;;;;;;;5046020;28;20261;-43
2022/07/05 07:00:54;;;;;;;8.93;4.40;;;;;;;;;;5049388;28;20790;-41
2022/07/05 07:03:20;;;;;;;8.67;3.63;;;;;;;;;;5046774;28;20650;-43
2022/07/05 07:05:47;;;;;;;13.00;4.20;;;;;;;;;;5048834;28;20202;-41
2022/07/05 07:10:57;;;;;;;9.70;3.93;;;;;;;;;;5047705;28;20198;-41
2022/07/05 07:13:23;;;;;;;6.73;4.20;;;;;;;;;;5048046;28;20616;-41
2022/07/05 07:15:50;;;;;;;6.23;4.07;;;;;;;;;;5049382;28;20175;-41
2022/07/05 07:18:16;;;;;;;8.73;4.33;;;;;;;;;;5047800;28;20410;-40
2022/07/05 07:20:42;;;;;;;10.90;4.70;;;;;;;;;;5053598;28;20254;-43
2022/07/05 07:23:08;;;;;;;9.10;5.00;;;;;;;;;;5043785;28;20163;-43
2022/07/05 07:25:34;;;;;;;8.77;4.70;;;;;;;;;;5045306;28;20618;-43
2022/07/05 07:28:00;;;;;;;8.90;5.30;;;;;;;;;;5050408;28;20167;-40
2022/07/05 07:30:27;;;;;;;15.30;5.33;;;;;;;;;;5046921;28;20174;-41
2022/07/05 07:32:54;;;;;;;10.63;5.67;;;;;;;;;;5044467;28;20166;-41
2022/07/05 07:35:20;;;;;;;11.77;6.40;;;;;;;;;;5049940;28;20183;-41
2022/07/05 07:37:46;;;;;;;8.93;4.70;;;;;;;;;;5054537;28;20388;-41
2022/07/05 07:40:12;;;;;;;8.60;3.80;;;;;;;;;;5051460;28;20279;-41
2022/07/05 07:42:38;;;;;;;10.87;4.33;;;;;;;;;;5049503;28;20278;-41
2022/07/05 07:45:05;;;;;;;6.43;3.53;;;;;;;;;;5053725;28;20386;-41
2022/07/05 07:47:35;;;;;;;7.43;3.40;;;;;;;;;;5053624;28;20167;-40
2022/07/05 07:50:01;;;;;;;7.17;2.80;;;;;;;;;;5051282;28;20175;-41
2022/07/05 07:52:30;;;;;;;7.43;3.30;;;;;;;;;;5049965;28;20279;-41
2022/07/05 07:54:56;;;;;;;7.20;3.77;;;;;;;;;;5054174;28;20253;-41
2022/07/05 07:57:22;;;;;;;6.20;3.53;;;;;;;;;;5051829;28;20593;-41
2022/07/05 07:59:48;;;;;;;8.17;3.53;;;;;;;;;;5053459;28;20534;-41
2022/07/05 08:02:14;;;;;;;4.60;2.83;;;;;;;;;;5049500;28;20717;-41
2022/07/05 08:04:40;;;;;;;9.83;2.77;;;;;;;;;;5050188;28;20384;-39
2022/07/05 08:07:06;;;;;;;5.93;2.70;;;;;;;;;;5054565;28;20183;-41
2022/07/05 08:09:32;;;;;;;5.67;2.30;;;;;;;;;;5048077;28;20663;-40
2022/07/05 08:11:59;;;;;;;4.53;2.50;;;;;;;;;;5048902;28;20467;-40
2022/07/05 08:14:25;;;;;;;5.67;2.53;;;;;;;;;;5048763;28;20179;-40
2022/07/05 08:16:51;;;;;;;4.63;2.87;;;;;;;;;;5051666;28;20183;-40
2022/07/05 08:22:02;;;;;;;6.20;3.30;;;;;;;;;;5052492;28;20571;-40
2022/07/05 08:24:28;;;;;;;4.33;2.70;;;;;;;;;;5051157;28;20171;-40
2022/07/05 08:26:54;;;;;;;7.30;2.73;;;;;;;;;;5054666;28;20171;-40
2022/07/05 08:29:20;;;;;;;6.00;3.00;;;;;;;;;;5056936;28;20214;-40
2022/07/05 08:31:49;;;;;;;7.60;3.57;;;;;;;;;;5057054;28;20178;-40
2022/07/05 08:34:16;;;;;;;4.80;3.10;;;;;;;;;;5056905;28;20205;-41
2022/07/05 08:36:42;;;;;;;6.53;3.07;;;;;;;;;;5051144;28;20179;-41
2022/07/05 08:39:08;;;;;;;6.90;3.07;;;;;;;;;;5050201;28;20176;-39
2022/07/05 08:41:35;;;;;;;5.57;3.40;;;;;;;;;;5052638;28;20595;-40
2022/07/05 08:44:03;;;;;;;5.93;3.50;;;;;;;;;;5069465;27;20538;-40
2022/07/05 08:46:31;;;;;;;6.23;3.07;;;;;;;;;;5053099;28;20236;-41
2022/07/05 08:48:59;;;;;;;7.63;3.60;;;;;;;;;;5047031;28;21441;-41
2022/07/05 08:51:26;;;;;;;9.10;3.97;;;;;;;;;;5049510;28;20232;-42
2022/07/05 08:53:53;;;;;;;8.87;4.70;;;;;;;;;;5050072;28;20178;-42
2022/07/05 08:56:19;;;;;;;8.83;4.50;;;;;;;;;;5050236;28;20242;-41
2022/07/05 08:58:46;;;;;;;9.83;3.97;;;;;;;;;;5054790;28;20345;-42
2022/07/05 09:01:16;;;;;;;7.57;4.40;;;;;;;;;;5048320;28;20190;-41
2022/07/05 09:03:47;;;;;;;6.27;4.20;;;;;;;;;;5045521;28;20290;-42
2022/07/05 09:06:14;;;;;;;7.23;4.13;;;;;;;;;;5050686;28;20285;-42
2022/07/05 09:08:41;;;;;;;6.63;4.27;;;;;;;;;;5047823;28;20171;-41
2022/07/05 09:11:08;;;;;;;9.53;4.80;;;;;;;;;;5052726;28;20171;-40
2022/07/05 09:13:38;;;;;;;6.47;4.13;;;;;;;;;;5052274;28;20170;-41
2022/07/05 09:16:04;;;;;;;8.83;3.50;;;;;;;;;;5047993;28;21041;-41
2022/07/05 09:18:45;;;;;;;4.93;3.00;;;;;;;;;;5047288;28;20260;-42
2022/07/05 09:21:14;;;;;;;5.00;2.97;;;;;;;;;;5048075;28;20194;-41
2022/07/05 09:23:41;;;;;;;8.97;3.50;;;;;;;;;;5048334;28;20244;-40
2022/07/05 09:26:07;;;;;;;8.27;3.37;;;;;;;;;;5051692;28;20260;-41
2022/07/05 09:28:34;;;;;;;6.03;2.73;;;;;;;;;;5049756;28;20266;-42
2022/07/05 09:31:00;;;;;;;6.63;3.20;;;;;;;;;;5049800;28;21209;-42
2022/07/05 09:33:26;;;;;;;8.00;3.20;;;;;;;;;;5048499;28;21488;-42
2022/07/05 09:35:57;;;;;;;6.20;3.10;;;;;;;;;;5046712;28;20179;-41
2022/07/05 09:38:24;;;;;;;6.17;3.07;;;;;;;;;;5047260;28;21140;-41
2022/07/05 09:40:52;;;;;;;4.40;3.23;;;;;;;;;;5049451;28;20201;-41
2022/07/05 09:43:19;;;;;;;4.07;3.33;;;;;;;;;;5049483;28;20171;-41
2022/07/05 09:46:02;;;;;;;5.60;3.80;;;;;;;;;;5047370;28;20989;-42
2022/07/05 09:48:29;;;;;;;10.17;3.73;;;;;;;;;;5044479;28;20346;-40
2022/07/05 09:51:15;;;;;;;9.40;3.80;;;;;;;;;;5046699;28;20171;-41
2022/07/05 09:53:48;;;;;;;8.57;4.53;;;;;;;;;;5048156;28;20174;-41
2022/07/05 09:56:14;;;;;;;7.67;3.43;;;;;;;;;;5043829;28;21053;-41
2022/07/05 09:58:40;;;;;;;7.00;3.73;;;;;;;;;;5044489;28;20297;-41
2022/07/05 10:01:23;;;;;;;6.23;2.80;;;;;;;;;;5047895;28;20207;-42
2022/07/05 10:03:57;;;;;;;11.07;3.43;;;;;;;;;;5052822;28;20224;-41
2022/07/05 10:06:23;;;;;;;7.23;4.27;;;;;;;;;;5048158;28;20317;-42
2022/07/05 10:08:50;;;;;;;5.53;3.40;;;;;;;;;;5049993;28;20525;-41
2022/07/05 10:11:20;;;;;;;7.83;4.17;;;;;;;;;;5046169;28;20171;-41
2022/07/05 10:13:51;;;;;;;8.30;4.40;;;;;;;;;;5053775;28;20270;-41
2022/07/05 10:16:17;;;;;;;9.63;4.60;;;;;;;;;;5051510;28;20203;-41
2022/07/05 10:18:48;;;;;;;11.00;5.17;;;;;;;;;;5046080;28;20182;-42
2022/07/05 10:21:14;;;;;;;6.33;3.70;;;;;;;;;;5051937;28;20654;-41
2022/07/05 10:23:47;;;;;;;9.20;5.23;;;;;;;;;;5052636;28;20185;-42
2022/07/05 10:26:14;;;;;;;7.23;4.43;;;;;;;;;;5053489;28;20887;-40
2022/07/05 10:28:41;;;;;;;7.97;5.40;;;;;;;;;;5051117;28;20283;-42
2022/07/05 10:31:10;;;;;;;9.63;4.37;;;;;;;;;;5048492;28;20741;-42
2022/07/05 10:33:36;;;;;;;7.33;5.30;;;;;;;;;;5053443;28;20199;-42
2022/07/05 10:36:03;;;;;;;8.87;4.67;;;;;;;;;;5053465;28;20700;-42
2022/07/05 10:38:29;;;;;;;11.03;5.47;;;;;;;;;;5047343;28;20274;-42
2022/07/05 10:40:58;;;;;;;10.60;4.33;;;;;;;;;;5046560;28;20222;-40
2022/07/05 10:43:25;;;;;;;6.53;4.63;;;;;;;;;;5049803;28;20171;-42
2022/07/05 10:45:51;;;;;;;6.60;4.30;;;;;;;;;;5047369;28;20427;-42
2022/07/05 10:48:17;;;;;;;7.00;3.50;;;;;;;;;;5047577;28;20885;-41
2022/07/05 10:50:43;;;;;;;5.47;3.40;;;;;;;;;;5050056;28;20494;-41
2022/07/05 10:53:10;;;;;;;7.30;4.50;;;;;;;;;;5039754;28;20782;-42
2022/07/05 10:55:53;;;;;;;8.53;4.00;;;;;;;;;;5042055;28;20975;-42
2022/07/05 10:58:20;;;;;;;10.57;4.70;;;;;;;;;;5040151;28;20181;-41
2022/07/05 11:00:46;;;;;;;8.70;5.33;;;;;;;;;;5048210;28;20737;-42
2022/07/05 11:03:34;;;;;;;5.23;4.20;;;;;;;;;;5046633;28;20167;-41
2022/07/05 11:06:01;;;;;;;8.40;4.10;;;;;;;;;;5049410;28;20273;-40
2022/07/05 11:08:27;;;;;;;8.83;4.80;;;;;;;;;;5042231;28;20178;-40
2022/07/05 11:11:13;;;;;;;6.70;4.07;;;;;;;;;;5043414;28;20171;-41
2022/07/05 11:13:47;;;;;;;4.87;3.47;;;;;;;;;;5043546;28;20632;-41
2022/07/05 11:16:39;;;;;;;5.97;3.30;;;;;;;;;;5046630;28;20182;-40
2022/07/05 11:19:09;;;;;;;7.67;2.70;;;;;;;;;;5045143;28;20786;-41
2022/07/05 11:21:37;;;;;;;3.90;2.33;;;;;;;;;;5048355;28;20186;-41
2022/07/05 11:24:19;;;;;;;6.57;2.53;;;;;;;;;;5052564;28;20254;-43
2022/07/05 11:26:45;;;;;;;6.30;2.50;;;;;;;;;;5049811;28;20186;-44
2022/07/05 11:29:30;;;;;;;4.47;2.43;;;;;;;;;;5049525;28;20172;-41
2022/07/05 11:32:06;;;;;;;5.43;2.00;;;;;;;;;;5049472;28;20171;-40
2022/07/05 11:34:35;;;;;;;4.70;2.17;;;;;;;;;;5055875;28;20165;-40
2022/07/05 11:37:18;;;;;;;3.63;1.90;;;;;;;;;;5054745;28;20844;-41
2022/07/05 11:39:45;;;;;;;7.37;2.37;;;;;;;;;;5045113;28;20207;-41
2022/07/05 11:42:12;;;;;;;2.60;1.60;;;;;;;;;;5052618;28;20729;-39
2022/07/05 11:44:40;;;;;;;2.97;1.83;;;;;;;;;;5056057;28;20179;-41
2022/07/05 11:47:08;;;;;;;3.70;2.10;;;;;;;;;;5050699;28;20167;-41
2022/07/05 11:49:34;;;;;;;3.50;1.93;;;;;;;;;;5052765;28;20175;-42
2022/07/05 11:52:01;;;;;;;2.67;2.27;;;;;;;;;;5057345;28;20604;-43
2022/07/05 11:54:28;;;;;;;2.87;2.00;;;;;;;;;;5053739;28;20245;-43
2022/07/05 11:56:55;;;;;;;3.50;2.00;;;;;;;;;;5051764;28;21502;-43
2022/07/05 11:59:22;;;;;;;3.13;2.00;;;;;;;;;;5052612;28;20176;-40
2022/07/05 12:01:48;;;;;;;4.00;2.43;;;;;;;;;;5052954;28;20932;-40
2022/07/05 12:04:28;;;;;;;6.93;2.13;;;;;;;;;;5060295;28;20193;-40
2022/07/05 12:06:55;;;;;;;4.70;2.10;;;;;;;;;;5050005;28;20183;-39
2022/07/05 12:09:26;;;;;;;2.80;2.07;;;;;;;;;;5056035;28;21070;-40
2022/07/05 12:14:50;;;;;;;3.30;1.83;;;;;;;;;;5049206;28;20256;-40
2022/07/05 12:17:20;;;;;;;7.60;2.10;;;;;;;;;;5046528;28;20212;-40
2022/07/05 12:19:46;;;;;;;3.30;1.93;;;;;;;;;;5049855;28;20343;-40
2022/07/05 12:22:13;;;;;;;3.97;1.70;;;;;;;;;;5052241;28;20182;-40
2022/07/05 12:24:39;;;;;;;2.53;1.67;;;;;;;;;;5058030;28;20277;-41
2022/07/05 12:27:06;;;;;;;3.63;1.90;;;;;;;;;;5047623;28;20268;-43
2022/07/05 12:29:32;;;;;;;4.40;1.70;;;;;;;;;;5044447;28;20190;-42
2022/07/05 12:31:59;;;;;;;3.17;1.57;;;;;;;;;;5048148;28;21012;-40
2022/07/05 12:34:25;;;;;;;3.40;1.90;;;;;;;;;;5045528;28;20260;-40
2022/07/05 12:36:51;;;;;;;3.17;2.00;;;;;;;;;;5044189;28;20191;-40
2022/07/05 12:39:17;;;;;;;3.93;1.60;;;;;;;;;;5048788;28;20185;-41
2022/07/05 12:41:44;;;;;;;2.23;1.53;;;;;;;;;;5045065;28;20178;-40
2022/07/05 12:44:10;;;;;;;5.80;1.93;;;;;;;;;;5053591;28;20948;-40
2022/07/05 12:46:39;;;;;;;3.00;1.63;;;;;;;;;;5052411;28;20178;-39
2022/07/05 12:49:06;;;;;;;3.17;1.50;;;;;;;;;;5055011;28;21680;-41
2022/07/05 12:51:36;;;;;;;2.70;1.70;;;;;;;;;;5055611;28;20182;-40
2022/07/05 12:59:34;;;;;;;2.60;1.80;;;;;;;;;;5048200;28;20233;-41
2022/07/05 13:02:00;;;;;;;1.73;1.50;;;;;;;;;;5047883;28;20178;-41
2022/07/05 13:04:26;;;;;;;5.33;1.63;;;;;;;;;;5052251;28;20179;-40
2022/07/05 13:06:57;;;;;;;3.33;1.83;;;;;;;;;;5045297;28;20176;-41
2022/07/05 13:09:32;;;;;;;2.73;1.63;;;;;;;;;;5049030;28;20277;-41
2022/07/05 13:12:18;;;;;;;8.30;1.93;;;;;;;;;;5056124;28;20368;-41
2022/07/05 13:14:48;;;;;;;3.00;1.70;;;;;;;;;;5053521;28;20834;-39
2022/07/05 13:17:15;;;;;;;5.70;1.77;;;;;;;;;;5039759;28;20191;-40
2022/07/05 13:19:42;;;;;;;3.60;2.00;;;;;;;;;;5042210;28;20215;-41
2022/07/05 13:22:08;;;;;;;3.13;1.50;;;;;;;;;;5040015;28;20233;-41
2022/07/05 13:24:35;;;;;;;3.33;1.70;;;;;;;;;;5047648;28;20923;-40
2022/07/05 13:27:01;;;;;;;4.50;1.57;;;;;;;;;;5048652;28;20188;-40
2022/07/05 13:29:27;;;;;;;2.87;1.50;;;;;;;;;;5042322;28;20207;-41
2022/07/05 13:31:53;;;;;;;6.00;1.90;;;;;;;;;;5043877;28;20811;-41
2022/07/05 13:34:23;;;;;;;4.63;1.80;;;;;;;;;;5045964;28;20188;-41
2022/07/05 13:36:49;;;;;;;5.87;1.97;;;;;;;;;;5047341;28;20185;-41
2022/07/05 13:39:15;;;;;;;6.10;2.20;;;;;;;;;;5045478;28;20808;-41
2022/07/05 13:41:42;;;;;;;8.53;2.10;;;;;;;;;;5047763;28;20181;-41
2022/07/05 13:44:08;;;;;;;4.00;1.97;;;;;;;;;;5046071;28;21183;-41
2022/07/05 13:46:34;;;;;;;4.23;1.90;;;;;;;;;;5052464;28;20209;-41
2022/07/05 13:49:00;;;;;;;5.37;2.00;;;;;;;;;;5047515;28;20357;-41
2022/07/05 13:51:27;;;;;;;5.00;2.17;;;;;;;;;;5054403;28;20168;-41
2022/07/05 13:53:53;;;;;;;4.37;2.10;;;;;;;;;;5052830;28;20175;-40
2022/07/05 13:56:19;;;;;;;5.57;2.13;;;;;;;;;;5055393;28;21422;-40
2022/07/05 13:58:45;;;;;;;5.93;2.07;;;;;;;;;;5054517;28;21057;-41
2022/07/05 14:01:11;;;;;;;6.63;2.27;;;;;;;;;;5053145;28;20287;-40
2022/07/05 14:03:37;;;;;;;6.63;2.10;;;;;;;;;;5050030;28;20238;-41
2022/07/05 14:06:03;;;;;;;5.93;2.20;;;;;;;;;;5058217;28;20179;-41
2022/07/05 14:08:30;;;;;;;7.53;2.20;;;;;;;;;;5054650;28;20188;-40
2022/07/05 14:10:57;;;;;;;6.77;2.10;;;;;;;;;;5052615;28;20264;-41
2022/07/05 14:13:24;;;;;;;6.40;2.20;;;;;;;;;;5049358;28;20186;-41
2022/07/05 14:15:51;;;;;;;4.83;2.00;;;;;;;;;;5052681;28;20187;-40
2022/07/05 14:18:17;;;;;;;4.60;1.87;;;;;;;;;;5052027;28;20979;-41
2022/07/05 14:20:44;;;;;;;4.53;2.00;;;;;;;;;;5051818;28;20857;-41
2022/07/05 14:23:10;;;;;;;5.38;2.03;;;;;;;;;;5050452;28;20179;-41
2022/07/05 14:25:37;;;;;;;7.15;2.30;;;;;;;;;;5053966;28;20171;-41
2022/07/05 14:28:07;;;;;;;6.13;2.03;;;;;;;;;;5053307;28;20192;-41
2022/07/05 14:30:33;;;;;;;4.63;2.00;;;;;;;;;;5050475;28;20972;-40
2022/07/05 14:33:00;;;;;;;5.07;2.30;;;;;;;;;;5050536;28;20198;-41
2022/07/05 14:35:26;;;;;;;6.75;2.17;;;;;;;;;;5053378;28;20180;-41
2022/07/05 14:37:53;;;;;;;4.43;2.30;;;;;;;;;;5052960;28;21088;-41
2022/07/05 14:40:19;;;;;;;5.07;1.90;;;;;;;;;;5049572;28;20722;-41
2022/07/05 14:42:45;;;;;;;5.53;2.00;;;;;;;;;;5048962;28;20193;-41
2022/07/05 14:45:12;;;;;;;7.55;2.42;;;;;;;;;;5046314;28;20935;-41
2022/07/05 14:47:38;;;;;;;3.70;2.03;;;;;;;;;;5052539;28;20292;-42
2022/07/05 14:50:04;;;;;;;5.00;2.30;;;;;;;;;;5051663;28;21029;-42
2022/07/05 14:52:30;;;;;;;6.82;2.20;;;;;;;;;;5050135;28;20208;-42
2022/07/05 14:54:57;;;;;;;8.73;2.30;;;;;;;;;;5048558;28;21596;-41
2022/07/05 14:57:23;;;;;;;6.00;2.30;;;;;;;;;;5051965;28;20186;-39